• Join FlightAware (Why Join?)
  • Login
  • US Flag 
12:20PM EDT


 

Airport Tracker/Info


-or-


 

Live Flight TrackerFlight Track Log ✈ WEW1540 ✈ 06-May-2013 ✈ CYYN - CYQR

Flight Track Log - Related Links

Times and Time Zones

All times are in EDT time to prevent confusion due to time zone crossing. See the WEW1540 flight status page for this flight to view local times or setup timezone preferences in your user account.

Time Position Orientation Groundspeed Altitude Reporting Facility
EDT Latitude Longitude Course Direction KTS MPH feet Rate Location/Type
08:06PM 50.3333 -107.3167 85° East 170 196 9,100  Level Winnipeg Center
08:07PM 50.3351 -106.9207 85° East  Level Estimated
08:07PM 50.3333 -107.2333 90° East 180 207 9,100  Level Winnipeg Center
08:08PM 50.3388 -106.8507 85° East  Level Estimated
08:08PM 50.3500 -107.1667 69° East 180 207 9,100  Level Winnipeg Center
08:09PM 50.3424 -106.7806 85° East  Level Estimated
08:09PM 50.3667 -107.0833 73° East 180 207 9,100  Level Winnipeg Center
08:10PM 50.3460 -106.7105 85° East  Level Estimated
08:11PM 50.3495 -106.6404 85° East  Level Estimated
08:11PM 50.3833 -106.9333 80° East 180 207 9,100  Level Winnipeg Center
08:12PM 50.4000 -106.8500 73° East 180 207 9,100  Level Winnipeg Center
08:14PM 50.4170 -106.7309 77° East  Level FlightAware Approximate
08:15PM 50.4333 -106.6167 77° East 180 207 9,100  Level Winnipeg Center
08:16PM 50.4333 -106.5500 90° East 180 207 9,100 -60 Level Winnipeg Center
08:17PM 50.4333 -106.4667 90° East 180 207 9,000  Descending Winnipeg Center
08:18PM 50.4667 -106.4000 52° Northeast 180 207 9,100  Climbing Winnipeg Center
08:20PM 50.4827 -106.2841 78° East  Level FlightAware Approximate
08:21PM 50.5000 -106.1667 78° East 180 207 9,000  Level Winnipeg Center
08:22PM 50.5000 -106.0833 90° East 180 207 9,000  Level Winnipeg Center
08:23PM 50.5167 -106.0000 73° East 180 207 9,000  Level Winnipeg Center
08:24PM 50.5333 -105.9333 69° East 180 207 9,000  Level Winnipeg Center
08:25PM 50.5333 -105.8500 90° East 180 207 9,000  Level Winnipeg Center
08:26PM 50.5500 -105.7833 69° East 180 207 9,100  Climbing Winnipeg Center
08:27PM 50.5461 -105.8154 78° East  Level FlightAware Approximate
08:27PM 50.5333 -105.7000 107° East 180 207 9,000  Level Winnipeg Center
08:28PM 50.5500 -105.6167 72° East 180 207 8,600 -540 Descending Winnipeg Center
08:29PM 50.5333 -105.5333 107° East 190 219 8,000 -600 Descending Winnipeg Center
08:30PM 50.5167 -105.4500 107° East 190 219 7,400 -600 Descending Winnipeg Center
08:31PM 50.5167 -105.3667 90° East 190 219 6,900 -660 Descending Winnipeg Center
08:32PM 50.5000 -105.2833 107° East 190 219 6,100 -900 Descending Winnipeg Center
08:33PM 50.4667 -105.2000 122° Southeast 190 219 5,200 -720 Descending Winnipeg Center
08:34PM 50.4667 -105.1500 90° East 180 207 4,700 -540 Descending Winnipeg Center
08:35PM 50.4500 -105.0667 107° East 170 196 4,200 -240 Descending Winnipeg Center
08:37PM 50.4000 -104.9500 124° Southeast 130 150 4,100 -120 Descending Winnipeg Center
08:38PM 50.4000 -104.9333 90° East 110 127 3,900 -300 Descending Winnipeg Center
08:39PM 50.4167 -104.8833 62° Northeast 120 138 3,600 -420 Descending Winnipeg Center
08:40PM 50.4167 -104.8333 90° East 120 138 3,100 -540 Descending Winnipeg Center
08:41PM 50.4167 -104.7833 90° East 130 150 2,600 -540 Descending Winnipeg Center
08:42PM 50.4000 -104.7167 111° Southeast 110 127 2,100 -360 Descending Winnipeg Center
08:43PM 50.4000 -104.6667 90° East 100 115 1,900 -240 Descending Winnipeg Center